Ashiya Air Base, Japan

5:11 AM JST on September 21, 2014 (GMT +0900)
Akama Station(JR KYUSHU RAILWAY) | Change Station
CLOSE
Current Station
Personal Weather Station
Location: Munakata, FUKUOKA
Elevation: 33 ft
Nearby Weather Stations

Elev 33 ft 33.80 °N, 130.57 °E | Updated 10 seconds ago

Scattered Clouds
Scattered Clouds
61.7 °F
Feels Like 61.7 °F
N
4.6
Wind Variable Wind from ESE
Gusts 4.6 mph

Today
High -- | Low -- °F
--% Chance of Precip.
Yesterday
High -- | Low -- °F
Precip. -- in
6:04 AM 6:16 PM
Waning Crescent, 10% visible
Pressure 29.95 in
Visibility 6.2 miles
Clouds Few 2500 ft
Scattered Clouds 7000 ft
Dew Point 59 °F
Humidity 91%
Rainfall 0.00 in
Snow Depth Not available.
UV 0 out of 12
Pollen Not available.
Air Quality Not available.
Flu Activity Not available.
METAR RJFR 202000Z 07010KT 050V120 9999 FEW025 SCT070 21/16 Q1014

More Conditions Fewer Conditions

Pressure 29.95 in
Visibility 6.2 miles
Clouds Few 2500 ft
Scattered Clouds 7000 ft
Dew Point 59 °F
Humidity 91%
Rainfall 0.00 in
Snow Depth Not available.
UV 0 out of 12
Pollen Not available.
Air Quality Not available.
Flu Activity Not available.
METAR RJFR 202000Z 07010KT 050V120 9999 FEW025 SCT070 21/16 Q1014

More Conditions Fewer Conditions

10-Day Weather Forecast

Almanac

Astronomy

Sep. 21, 2014 Rise Set
Actual Time 6:04 AM JST 6:16 PM JST
Civil Twilight 5:39 AM JST 6:41 PM JST
Nautical Twilight 5:10 AM JST 7:10 PM JST
Astronomical Twilight 4:40 AM JST 7:39 PM JST
Moon 3:11 AM JST (9/21) 4:27 PM JST (9/21)
Length of Visible Light 13h 01m
Length of Day
12h 11m
Tomorrow will be 2m 6s shorter.
Waning Crescent, 10% of the Moon is Illuminated
Sep 20
Waning Crescent
Sep 24
New
Oct 1
First Quarter
Oct 8
Full
Oct 15
Last Quarter

Yesterday's Extremes

Country Highs Country Lows

Community

WunderPhotos

Upload Photos

1,754,927 photos uploaded!

WunderBlogs® & News

Nearby

Snow Depth

Not available.

Earthquake Activity

City Distance Mag. Time & Date
No recent earthquake activity has been reported nearby.
Minimum magnitude displayed is 2.5.

Coastal Water Temperatures

Place Temperature
No Stations Reporting

Nearby Weather Stations